createdAt,value
2022-09-28T00:01:45.591Z,7.40
2022-09-28T00:04:12.956Z,6.90
2022-09-28T00:06:40.291Z,6.75
2022-09-28T00:09:07.732Z,7.05
2022-09-28T00:11:35.417Z,7.47
2022-09-28T00:14:03.873Z,8.50
2022-09-28T00:16:35.283Z,9.43
2022-09-28T00:19:03.467Z,7.38
2022-09-28T00:21:33.255Z,7.43
2022-09-28T00:24:18.661Z,7.47
2022-09-28T00:26:55.005Z,7.15
2022-09-28T00:29:36.857Z,8.70
2022-09-28T00:32:11.600Z,6.85
2022-09-28T00:37:10.861Z,7.10
2022-09-28T00:39:41.259Z,6.80
2022-09-28T00:42:21.136Z,8.63
2022-09-28T00:44:51.394Z,6.88
2022-09-28T00:47:29.697Z,7.15
2022-09-28T00:50:21.541Z,6.50
2022-09-28T00:52:53.601Z,7.45
2022-09-28T00:55:50.039Z,6.60
2022-09-28T00:58:24.110Z,6.82
2022-09-28T01:00:52.590Z,6.32
2022-09-28T01:03:20.168Z,6.97
2022-09-28T01:05:50.584Z,7.20
2022-09-28T01:08:21.023Z,6.88
2022-09-28T01:10:49.780Z,7.55
2022-09-28T01:13:19.658Z,6.97
2022-09-28T01:15:53.428Z,7.75
2022-09-28T01:18:54.274Z,6.85
2022-09-28T01:21:23.816Z,6.50
2022-09-28T01:24:10.841Z,8.15
2022-09-28T01:26:44.557Z,8.88
2022-09-28T01:29:29.839Z,9.55
2022-09-28T01:32:23.874Z,11.60
2022-09-28T01:34:56.728Z,8.43
2022-09-28T01:37:32.317Z,9.23
2022-09-28T01:40:03.154Z,9.55
2022-09-28T01:42:37.758Z,9.43
2022-09-28T01:45:14.290Z,10.00
2022-09-28T01:47:43.179Z,8.43
2022-09-28T01:50:15.437Z,9.27
2022-09-28T01:52:51.688Z,9.05
2022-09-28T01:55:31.259Z,9.60
2022-09-28T01:58:07.809Z,10.23
2022-09-28T02:00:38.305Z,10.18
2022-09-28T02:03:16.788Z,9.95
2022-09-28T02:05:57.035Z,10.80
2022-09-28T02:08:34.949Z,12.70
2022-09-28T02:11:16.493Z,12.77
2022-09-28T02:13:55.186Z,12.30
2022-09-28T02:16:43.969Z,11.68
2022-09-28T02:19:38.344Z,12.07
2022-09-28T02:22:25.420Z,13.93
2022-09-28T02:24:56.880Z,14.05
2022-09-28T02:27:38.920Z,12.75
2022-09-28T02:30:07.712Z,13.02
2022-09-28T02:32:40.237Z,12.80
2022-09-28T02:35:15.223Z,12.15
2022-09-28T02:37:43.189Z,12.60
2022-09-28T02:40:16.040Z,12.60
2022-09-28T02:42:57.602Z,12.80
2022-09-28T02:45:48.195Z,12.52
2022-09-28T02:48:49.182Z,14.52
2022-09-28T02:51:32.262Z,14.40
2022-09-28T02:54:50.682Z,13.65
2022-09-28T02:57:48.319Z,15.00
2022-09-28T03:00:19.655Z,16.40
2022-09-28T03:03:17.521Z,19.45
2022-09-28T03:06:02.251Z,18.20
2022-09-28T03:08:48.940Z,18.65
2022-09-28T03:11:28.733Z,17.05
2022-09-28T03:13:56.908Z,21.33
2022-09-28T03:16:32.371Z,17.90
2022-09-28T03:18:59.844Z,18.52
2022-09-28T03:21:27.112Z,19.50
2022-09-28T03:23:54.350Z,17.55
2022-09-28T03:26:21.609Z,18.90
2022-09-28T03:28:48.860Z,18.83
2022-09-28T03:31:22.740Z,21.25
2022-09-28T03:33:51.438Z,18.90
2022-09-28T03:36:18.947Z,17.73
2022-09-28T03:38:46.311Z,18.42
2022-09-28T03:41:13.793Z,20.20
2022-09-28T03:43:43.174Z,22.77
2022-09-28T03:46:12.778Z,21.88
2022-09-28T03:48:45.048Z,23.35
2022-09-28T03:51:13.164Z,24.15
2022-09-28T03:53:40.820Z,24.67
2022-09-28T03:56:12.173Z,26.25
2022-09-28T03:58:40.517Z,27.10
2022-09-28T04:01:16.595Z,24.75
2022-09-28T04:03:46.506Z,25.08
2022-09-28T04:06:15.111Z,27.13
2022-09-28T04:08:43.260Z,24.63
2022-09-28T04:11:11.175Z,24.65
2022-09-28T04:13:38.452Z,23.17
2022-09-28T04:16:09.639Z,24.95
2022-09-28T04:18:37.065Z,21.92
2022-09-28T04:21:24.737Z,22.67
2022-09-28T04:24:01.317Z,21.17
2022-09-28T04:26:28.690Z,21.27
2022-09-28T04:29:15.661Z,22.73
2022-09-28T04:34:38.678Z,22.17
2022-09-28T04:37:08.089Z,21.45
2022-09-28T04:39:35.388Z,25.25
2022-09-28T04:42:02.793Z,21.15
2022-09-28T04:44:30.109Z,26.10
2022-09-28T04:47:05.193Z,23.30
2022-09-28T04:49:35.286Z,19.83
2022-09-28T04:52:18.533Z,18.83
2022-09-28T04:54:48.827Z,19.50
2022-09-28T04:57:16.986Z,20.52
2022-09-28T04:59:44.512Z,24.52
2022-09-28T05:02:15.128Z,24.42
2022-09-28T05:05:01.160Z,19.60
2022-09-28T05:08:03.663Z,21.75
2022-09-28T05:10:31.006Z,19.55
2022-09-28T05:12:58.239Z,19.48
2022-09-28T05:15:25.567Z,18.95
2022-09-28T05:17:53.816Z,20.30
2022-09-28T05:20:29.208Z,21.67
2022-09-28T05:22:56.856Z,25.55
2022-09-28T05:25:24.801Z,18.02
2022-09-28T05:28:23.819Z,20.58
2022-09-28T05:31:09.497Z,18.13
2022-09-28T05:33:51.206Z,19.20
2022-09-28T05:36:18.477Z,16.42
2022-09-28T05:38:46.248Z,18.67
2022-09-28T05:41:14.387Z,18.73
2022-09-28T05:43:41.727Z,21.75
2022-09-28T05:46:09.014Z,18.02
2022-09-28T05:48:39.550Z,14.75
2022-09-28T05:51:07.537Z,15.27
2022-09-28T05:53:35.392Z,18.38
2022-09-28T05:56:03.150Z,14.32
2022-09-28T05:58:32.418Z,15.73
2022-09-28T06:01:00.245Z,16.15
2022-09-28T06:03:27.560Z,18.50
2022-09-28T06:05:54.907Z,14.30
2022-09-28T06:08:22.300Z,16.52
2022-09-28T06:11:01.404Z,13.82
2022-09-28T06:13:29.431Z,13.43
2022-09-28T06:15:56.771Z,13.18
2022-09-28T06:18:24.339Z,13.65
2022-09-28T06:21:11.292Z,12.90
2022-09-28T06:23:48.214Z,12.73
2022-09-28T06:26:17.349Z,12.73
2022-09-28T06:28:45.420Z,11.38
2022-09-28T06:31:12.732Z,10.45
2022-09-28T06:33:49.373Z,9.73
2022-09-28T06:36:18.519Z,11.45
2022-09-28T06:38:46.412Z,9.55
2022-09-28T06:41:15.544Z,10.82
2022-09-28T06:43:46.081Z,11.77
2022-09-28T06:46:14.168Z,10.68
2022-09-28T06:48:50.367Z,8.63
2022-09-28T06:51:33.415Z,7.75
2022-09-28T06:54:19.746Z,10.93
2022-09-28T06:56:58.024Z,9.65
2022-09-28T06:59:25.381Z,12.32
2022-09-28T07:01:53.885Z,7.80
2022-09-28T07:04:52.406Z,6.55
2022-09-28T07:07:50.153Z,7.72
2022-09-28T07:10:45.974Z,7.38
2022-09-28T07:13:51.163Z,6.95
2022-09-28T07:16:26.419Z,7.90
2022-09-28T07:18:55.510Z,8.27
2022-09-28T07:21:29.651Z,6.55
2022-09-28T07:24:01.026Z,8.50
2022-09-28T07:26:51.041Z,6.45
2022-09-28T07:29:34.228Z,6.80
2022-09-28T07:32:18.314Z,6.60
2022-09-28T07:35:09.087Z,6.07
2022-09-28T07:38:02.538Z,5.67
2022-09-28T07:40:50.412Z,6.25
2022-09-28T07:43:21.946Z,5.65
2022-09-28T07:45:54.098Z,8.00
2022-09-28T07:48:22.393Z,6.07
2022-09-28T07:51:00.844Z,6.80
2022-09-28T07:53:34.524Z,5.88
2022-09-28T07:56:34.780Z,7.05
2022-09-28T07:59:17.468Z,5.97
2022-09-28T08:02:03.212Z,6.00
2022-09-28T08:04:30.915Z,6.13
2022-09-28T08:06:59.682Z,9.13
2022-09-28T08:17:13.706Z,5.15
2022-09-28T08:20:04.006Z,5.43
2022-09-28T08:22:32.251Z,4.68
2022-09-28T08:25:00.643Z,5.13
2022-09-28T08:28:02.323Z,4.70
2022-09-28T08:30:32.392Z,3.95
2022-09-28T08:33:29.479Z,4.97
2022-09-28T08:36:15.489Z,3.60
2022-09-28T08:39:01.287Z,3.08
2022-09-28T08:41:54.223Z,3.35
2022-09-28T08:48:41.820Z,3.88
2022-09-28T08:51:31.590Z,4.47
2022-09-28T08:54:42.166Z,4.47
2022-09-28T08:57:24.590Z,4.70
2022-09-28T08:59:55.680Z,4.55
2022-09-28T09:02:34.205Z,2.92
2022-09-28T09:05:19.088Z,2.77
2022-09-28T09:08:44.813Z,4.45
2022-09-28T09:11:44.368Z,4.20
2022-09-28T09:14:39.111Z,3.70
2022-09-28T09:17:32.271Z,2.63
2022-09-28T09:20:40.047Z,4.40
2022-09-28T09:23:20.750Z,5.03
2022-09-28T09:25:50.953Z,3.10
2022-09-28T09:28:26.487Z,3.45
2022-09-28T09:31:22.924Z,7.60
2022-09-28T09:34:06.961Z,7.47
2022-09-28T09:36:54.902Z,2.83
2022-09-28T09:40:21.713Z,4.03
2022-09-28T09:43:45.251Z,2.90
2022-09-28T09:46:49.766Z,2.60
2022-09-28T09:49:43.903Z,2.60
2022-09-28T09:52:55.149Z,3.38
2022-09-28T09:55:32.850Z,3.10
2022-09-28T09:58:40.747Z,2.40
2022-09-28T10:01:29.491Z,3.88
2022-09-28T10:04:28.074Z,3.78
2022-09-28T10:07:05.253Z,2.28
2022-09-28T10:09:42.275Z,3.10
2022-09-28T10:12:33.064Z,3.47
2022-09-28T10:15:03.325Z,4.10
2022-09-28T10:17:34.440Z,4.57
2022-09-28T10:20:20.248Z,2.22
2022-09-28T10:23:24.297Z,3.03
2022-09-28T10:25:55.009Z,4.57
2022-09-28T10:28:32.774Z,2.30
2022-09-28T10:31:00.169Z,2.20
2022-09-28T10:33:36.813Z,1.98
2022-09-28T10:36:07.230Z,4.50
2022-09-28T10:38:35.173Z,2.15
2022-09-28T10:41:13.621Z,4.45
2022-09-28T10:44:06.972Z,6.68
2022-09-28T10:47:05.001Z,2.90
2022-09-28T10:49:47.257Z,7.72
2022-09-28T10:52:35.010Z,2.60
2022-09-28T10:55:25.011Z,3.22
2022-09-28T10:57:53.066Z,1.90
2022-09-28T11:00:38.967Z,1.70
2022-09-28T11:03:24.072Z,3.22
2022-09-28T11:06:07.152Z,5.03
2022-09-28T11:08:42.717Z,2.03
2022-09-28T11:11:16.599Z,1.70
2022-09-28T11:13:57.704Z,2.53
2022-09-28T11:16:36.412Z,3.47
2022-09-28T11:19:29.537Z,1.90
2022-09-28T11:21:56.945Z,3.50
2022-09-28T11:24:34.082Z,1.60
2022-09-28T11:27:04.173Z,4.50
2022-09-28T11:29:41.779Z,2.60
2022-09-28T11:32:23.084Z,1.73
2022-09-28T11:35:19.765Z,5.25
2022-09-28T11:37:53.720Z,2.28
2022-09-28T11:41:04.138Z,3.40
2022-09-28T11:43:46.226Z,2.03
2022-09-28T11:46:26.206Z,3.20
2022-09-28T11:49:03.780Z,0.80
2022-09-28T11:51:40.921Z,1.50
2022-09-28T11:54:21.848Z,1.00
2022-09-28T11:56:51.216Z,4.45
2022-09-28T11:59:31.531Z,1.13
2022-09-28T12:02:15.579Z,1.58
2022-09-28T12:04:57.696Z,0.80
2022-09-28T12:07:36.705Z,2.58
2022-09-28T12:10:19.523Z,0.73
2022-09-28T12:12:51.745Z,1.33
2022-09-28T12:15:23.930Z,0.85
2022-09-28T12:18:14.382Z,2.90
2022-09-28T12:21:16.985Z,2.17
2022-09-28T12:23:46.036Z,1.52
2022-09-28T12:26:37.238Z,2.22
2022-09-28T12:29:20.545Z,2.70
2022-09-28T12:31:57.189Z,3.08
2022-09-28T12:34:24.483Z,2.63
2022-09-28T12:37:10.273Z,1.67
2022-09-28T12:39:56.369Z,2.67
2022-09-28T12:42:45.996Z,1.48
2022-09-28T12:45:47.871Z,1.48
2022-09-28T12:49:03.063Z,7.90
2022-09-28T12:51:53.922Z,1.15
2022-09-28T12:54:38.752Z,4.22
2022-09-28T12:57:36.888Z,2.85
2022-09-28T13:00:15.874Z,3.40
2022-09-28T13:03:01.377Z,1.05
2022-09-28T13:05:47.222Z,1.27
2022-09-28T13:08:30.025Z,1.73
2022-09-28T13:11:23.403Z,1.33
2022-09-28T13:14:16.404Z,1.92
2022-09-28T13:16:57.232Z,0.85
2022-09-28T13:19:55.334Z,1.42
2022-09-28T13:22:49.544Z,4.10
2022-09-28T13:25:20.705Z,1.48
2022-09-28T13:27:56.620Z,1.10
2022-09-28T13:30:25.653Z,2.47
2022-09-28T13:32:57.517Z,2.22
2022-09-28T13:35:25.453Z,1.27
2022-09-28T13:38:17.699Z,1.73
2022-09-28T13:41:03.908Z,2.25
2022-09-28T13:43:41.628Z,1.27
2022-09-28T13:46:21.464Z,1.50
2022-09-28T13:48:56.045Z,0.80
2022-09-28T13:51:39.232Z,0.82
2022-09-28T13:54:29.777Z,1.20
2022-09-28T13:57:25.287Z,1.90
2022-09-28T14:03:05.058Z,0.90
2022-09-28T14:05:46.191Z,1.10
2022-09-28T14:08:38.412Z,1.13
2022-09-28T14:11:40.101Z,1.85
2022-09-28T14:14:11.834Z,1.30
2022-09-28T14:16:40.978Z,0.60
2022-09-28T14:19:26.509Z,2.25
2022-09-28T14:22:24.522Z,1.75
2022-09-28T14:25:17.105Z,0.82
2022-09-28T14:28:02.755Z,1.85
2022-09-28T14:30:42.381Z,1.33
2022-09-28T14:33:26.140Z,1.58
2022-09-28T14:35:58.240Z,1.35
2022-09-28T14:38:51.145Z,1.40
2022-09-28T14:41:36.328Z,1.45
2022-09-28T14:46:37.850Z,0.68
2022-09-28T14:49:19.440Z,1.35
2022-09-28T14:51:58.620Z,1.15
2022-09-28T14:54:53.271Z,1.95
2022-09-28T14:57:24.345Z,1.70
2022-09-28T14:59:51.808Z,1.65
2022-09-28T15:02:24.762Z,0.60
2022-09-28T15:05:10.769Z,0.85
2022-09-28T15:07:51.719Z,3.22
2022-09-28T15:10:42.007Z,1.20
2022-09-28T15:13:25.674Z,2.38
2022-09-28T15:16:05.392Z,0.98
2022-09-28T15:18:56.899Z,1.33
2022-09-28T15:21:31.641Z,1.83
2022-09-28T15:23:58.977Z,1.40
2022-09-28T15:26:30.880Z,1.00
2022-09-28T15:28:59.410Z,1.33
2022-09-28T15:31:28.372Z,1.00
2022-09-28T15:34:14.230Z,1.55
2022-09-28T15:36:46.354Z,9.63
2022-09-28T15:39:24.406Z,3.75
2022-09-28T15:41:52.318Z,3.17
2022-09-28T15:44:29.530Z,3.33
2022-09-28T15:47:13.821Z,2.13
2022-09-28T15:49:57.081Z,2.17
2022-09-28T15:52:36.388Z,2.25
2022-09-28T15:55:26.148Z,2.45
2022-09-28T15:58:19.139Z,1.20
2022-09-28T16:00:48.476Z,1.55
2022-09-28T16:03:28.471Z,2.75
2022-09-28T16:05:58.423Z,1.90
2022-09-28T16:08:37.216Z,1.50
2022-09-28T16:11:10.785Z,1.20
2022-09-28T16:13:51.978Z,1.95
2022-09-28T16:16:28.138Z,3.97
2022-09-28T16:18:58.505Z,3.83
2022-09-28T16:21:43.545Z,3.05
2022-09-28T16:24:23.142Z,6.18
2022-09-28T16:26:57.713Z,4.10
2022-09-28T16:29:32.347Z,2.38
2022-09-28T16:32:25.585Z,1.80
2022-09-28T16:35:16.449Z,2.45
2022-09-28T16:37:44.388Z,3.20
2022-09-28T16:40:14.972Z,3.33
2022-09-28T16:42:48.906Z,3.40
2022-09-28T16:45:20.497Z,3.47
2022-09-28T16:47:52.766Z,4.20
2022-09-28T16:50:21.550Z,3.00
2022-09-28T16:53:34.017Z,2.80
2022-09-28T16:56:02.437Z,2.17
2022-09-28T16:58:31.510Z,2.88
2022-09-28T17:00:59.884Z,2.65
2022-09-28T17:03:28.588Z,5.20
2022-09-28T17:05:56.720Z,6.78
2022-09-28T17:08:25.007Z,5.00
2022-09-28T17:13:45.743Z,5.35
2022-09-28T17:16:17.769Z,3.53
2022-09-28T17:18:45.961Z,4.90
2022-09-28T17:21:16.097Z,6.90
2022-09-28T17:23:44.274Z,5.35
2022-09-28T17:26:30.203Z,5.60
2022-09-28T17:29:06.730Z,7.03
2022-09-28T17:31:34.122Z,5.63
2022-09-28T17:34:01.641Z,7.00
2022-09-28T17:36:30.372Z,6.30
2022-09-28T17:38:58.217Z,6.93
2022-09-28T17:41:25.592Z,5.40
2022-09-28T17:43:52.858Z,6.53
2022-09-28T17:46:30.334Z,6.53
2022-09-28T17:49:01.937Z,5.82
2022-09-28T17:51:32.235Z,7.97
2022-09-28T17:54:00.991Z,5.68
2022-09-28T17:56:32.162Z,5.28
2022-09-28T17:59:17.296Z,8.23
2022-09-28T18:01:44.860Z,6.88
2022-09-28T18:04:33.326Z,6.65
2022-09-28T18:07:00.764Z,6.65
2022-09-28T18:09:28.131Z,6.18
2022-09-28T18:12:00.880Z,7.03
2022-09-28T18:14:28.518Z,7.28
2022-09-28T18:16:56.115Z,7.75
2022-09-28T18:19:23.472Z,9.48
2022-09-28T18:21:50.797Z,9.15
2022-09-28T18:24:18.424Z,9.93
2022-09-28T18:26:45.734Z,9.00
2022-09-28T18:29:13.042Z,8.10
2022-09-28T18:31:40.252Z,8.63
2022-09-28T18:34:07.524Z,10.48
2022-09-28T18:36:35.813Z,8.60
2022-09-28T18:39:03.361Z,7.75
2022-09-28T18:41:30.749Z,8.50
2022-09-28T18:44:00.767Z,8.38
2022-09-28T18:46:29.674Z,9.23
2022-09-28T18:48:57.301Z,9.02
2022-09-28T18:51:24.545Z,8.80
2022-09-28T18:53:52.257Z,8.25
2022-09-28T18:56:20.859Z,8.68
2022-09-28T18:58:51.516Z,9.13
2022-09-28T19:01:35.981Z,8.52
2022-09-28T19:04:06.329Z,8.82
2022-09-28T19:06:34.555Z,9.23
2022-09-28T19:09:02.386Z,9.65
2022-09-28T19:11:29.783Z,9.00
2022-09-28T19:13:57.217Z,10.68
2022-09-28T19:16:29.391Z,10.30
2022-09-28T19:19:02.034Z,8.32
2022-09-28T19:21:30.244Z,8.25
2022-09-28T19:24:01.070Z,7.88
2022-09-28T19:26:29.498Z,10.13
2022-09-28T19:28:57.534Z,9.32
2022-09-28T19:31:25.905Z,9.15
2022-09-28T19:33:53.187Z,9.68
2022-09-28T19:36:23.935Z,9.85
2022-09-28T19:38:52.777Z,10.10
2022-09-28T19:41:43.471Z,9.77
2022-09-28T19:44:16.731Z,10.48
2022-09-28T19:46:44.371Z,9.82
2022-09-28T19:49:14.278Z,11.07
2022-09-28T19:52:01.758Z,10.73
2022-09-28T19:54:35.523Z,10.50
2022-09-28T19:57:08.412Z,10.82
2022-09-28T19:59:37.386Z,10.45
2022-09-28T20:02:06.785Z,10.65
2022-09-28T20:04:34.503Z,11.30
2022-09-28T20:07:02.364Z,11.18
2022-09-28T20:09:29.691Z,10.82
2022-09-28T20:11:57.272Z,10.80
2022-09-28T20:14:28.163Z,10.45
2022-09-28T20:19:26.543Z,10.80
2022-09-28T20:21:54.762Z,10.13
2022-09-28T20:24:22.019Z,10.85
2022-09-28T20:26:49.530Z,10.52
2022-09-28T20:29:17.467Z,12.00
2022-09-28T20:31:45.585Z,11.48
2022-09-28T20:34:13.229Z,12.10
2022-09-28T20:36:42.392Z,11.93
2022-09-28T20:39:10.329Z,12.57
2022-09-28T20:41:37.791Z,12.52
2022-09-28T20:44:06.809Z,12.10
2022-09-28T20:46:35.267Z,11.63
2022-09-28T20:49:03.517Z,13.10
2022-09-28T20:51:31.126Z,16.50
2022-09-28T20:53:59.362Z,15.23
2022-09-28T20:56:37.493Z,15.60
2022-09-28T20:59:10.041Z,15.70
2022-09-28T21:01:38.004Z,17.13
2022-09-28T21:04:07.158Z,16.23
2022-09-28T21:06:40.411Z,17.38
2022-09-28T21:09:09.319Z,15.15
2022-09-28T21:11:37.556Z,16.10
2022-09-28T21:14:06.540Z,16.50
2022-09-28T21:16:35.030Z,15.82
2022-09-28T21:19:02.768Z,16.02
2022-09-28T21:21:30.118Z,17.75
2022-09-28T21:23:58.251Z,17.48
2022-09-28T21:26:31.129Z,18.48
2022-09-28T21:29:04.180Z,23.42
2022-09-28T21:31:37.516Z,21.05
2022-09-28T21:34:04.930Z,20.05
2022-09-28T21:36:32.681Z,19.38
2022-09-28T21:38:59.922Z,18.05
2022-09-28T21:41:28.642Z,15.98
2022-09-28T21:43:56.037Z,14.80
2022-09-28T21:46:23.360Z,15.45
2022-09-28T21:48:54.148Z,16.63
2022-09-28T21:51:21.966Z,17.23
2022-09-28T21:53:49.330Z,16.10
2022-09-28T21:56:17.509Z,15.63
2022-09-28T21:58:44.867Z,17.70
2022-09-28T22:01:19.534Z,18.42
2022-09-28T22:06:17.033Z,16.00
2022-09-28T22:08:45.412Z,16.30
2022-09-28T22:11:18.402Z,16.27
2022-09-28T22:13:46.805Z,15.80
2022-09-28T22:16:15.951Z,21.23
2022-09-28T22:18:43.945Z,23.65
2022-09-28T22:21:17.701Z,23.67
2022-09-28T22:23:45.156Z,21.38
2022-09-28T22:26:32.178Z,18.48
2022-09-28T22:29:07.926Z,18.17
2022-09-28T22:31:37.726Z,17.98
2022-09-28T22:34:05.881Z,15.43
2022-09-28T22:36:33.319Z,14.68
2022-09-28T22:39:00.690Z,15.60
2022-09-28T22:41:28.348Z,15.02
2022-09-28T22:43:56.040Z,16.40
2022-09-28T22:46:26.064Z,15.10
2022-09-28T22:48:56.953Z,14.55
2022-09-28T22:51:26.078Z,15.85
2022-09-28T22:53:53.512Z,15.45
2022-09-28T22:56:20.824Z,16.73
2022-09-28T22:58:48.173Z,14.65
2022-09-28T23:01:21.209Z,14.77
2022-09-28T23:03:50.329Z,15.23
2022-09-28T23:06:20.955Z,14.82
2022-09-28T23:08:50.382Z,15.40
2022-09-28T23:11:18.130Z,15.55
2022-09-28T23:13:55.861Z,15.05
2022-09-28T23:16:25.597Z,17.02
2022-09-28T23:18:54.963Z,14.55
2022-09-28T23:21:24.985Z,14.70
2022-09-28T23:23:55.269Z,15.68
2022-09-28T23:26:25.225Z,14.57
2022-09-28T23:28:53.316Z,15.60
2022-09-28T23:31:27.134Z,16.33
2022-09-28T23:33:59.622Z,14.93
2022-09-28T23:36:27.755Z,16.02
2022-09-28T23:38:55.067Z,14.98
2022-09-28T23:41:22.673Z,15.40
2022-09-28T23:43:50.021Z,16.55
2022-09-28T23:46:20.721Z,15.05
2022-09-28T23:48:49.662Z,15.60
2022-09-28T23:51:17.157Z,15.10
2022-09-28T23:53:45.177Z,16.50
2022-09-28T23:56:13.206Z,15.60
2022-09-28T23:58:40.552Z,14.88
